createdAt,value
2019-03-27T00:02:30.606Z,42.27
2019-03-27T00:05:08.854Z,44.13
2019-03-27T00:07:49.335Z,46.17
2019-03-27T00:10:32.323Z,61.90
2019-03-27T00:13:19.053Z,59.33
2019-03-27T00:16:01.024Z,63.48
2019-03-27T00:18:41.580Z,55.03
2019-03-27T00:21:24.873Z,64.85
2019-03-27T00:24:09.960Z,60.27
2019-03-27T00:27:00.630Z,55.40
2019-03-27T00:29:41.812Z,57.17
2019-03-27T00:32:22.261Z,55.43
2019-03-27T00:35:07.150Z,58.77
2019-03-27T00:37:51.478Z,55.07
2019-03-27T00:40:36.170Z,56.87
2019-03-27T00:43:16.592Z,50.27
2019-03-27T00:45:58.048Z,50.10
2019-03-27T00:49:08.209Z,50.40
2019-03-27T00:52:01.237Z,48.67
2019-03-27T00:54:44.057Z,49.93
2019-03-27T00:57:51.005Z,49.77
2019-03-27T01:00:55.059Z,57.83
2019-03-27T01:03:54.583Z,50.70
2019-03-27T01:06:39.519Z,50.70
2019-03-27T01:09:39.641Z,52.50
2019-03-27T01:12:23.944Z,56.37
2019-03-27T01:15:18.239Z,58.60
2019-03-27T01:18:01.163Z,52.00
2019-03-27T01:20:58.580Z,55.67
2019-03-27T01:23:48.505Z,62.13
2019-03-27T01:26:29.260Z,57.97
2019-03-27T01:29:10.431Z,57.63
2019-03-27T01:31:51.562Z,61.77
2019-03-27T01:34:35.747Z,53.57
2019-03-27T01:37:25.728Z,60.40
2019-03-27T01:40:05.754Z,52.27
2019-03-27T01:42:49.940Z,53.40
2019-03-27T01:45:53.954Z,55.47
2019-03-27T01:48:38.782Z,52.20
2019-03-27T01:51:24.306Z,55.67
2019-03-27T01:54:17.717Z,56.00
2019-03-27T01:57:12.046Z,56.47
2019-03-27T02:00:02.721Z,55.17
2019-03-27T02:02:49.567Z,55.03
2019-03-27T02:05:31.704Z,54.63
2019-03-27T02:08:13.996Z,62.93
2019-03-27T02:10:57.195Z,77.80
2019-03-27T02:13:42.023Z,64.13
2019-03-27T02:16:32.690Z,67.45
2019-03-27T02:19:14.547Z,60.43
2019-03-27T02:21:59.024Z,60.57
2019-03-27T02:24:41.879Z,60.57
2019-03-27T02:27:28.072Z,58.67
2019-03-27T02:30:11.952Z,58.60
2019-03-27T02:32:57.248Z,59.63
2019-03-27T02:35:39.278Z,62.17
2019-03-27T02:38:22.140Z,61.77
2019-03-27T02:41:05.222Z,58.93
2019-03-27T02:43:47.059Z,70.53
2019-03-27T02:46:38.482Z,67.90
2019-03-27T02:49:20.932Z,80.17
2019-03-27T02:52:03.464Z,62.33
2019-03-27T02:54:45.500Z,143.05
2019-03-27T02:57:29.867Z,83.97
2019-03-27T03:00:11.378Z,67.23
2019-03-27T03:02:56.678Z,64.17
2019-03-27T03:05:43.046Z,69.90
2019-03-27T03:08:26.300Z,65.00
2019-03-27T03:11:07.389Z,63.40
2019-03-27T03:13:49.133Z,68.67
2019-03-27T03:16:42.276Z,67.83
2019-03-27T03:19:16.861Z,68.77
2019-03-27T03:22:00.647Z,64.43
2019-03-27T03:24:41.733Z,62.53
2019-03-27T03:27:27.984Z,63.80
2019-03-27T03:30:12.791Z,66.33
2019-03-27T03:33:02.952Z,77.17
2019-03-27T03:35:44.952Z,68.57
2019-03-27T03:38:25.380Z,67.90
2019-03-27T03:41:08.807Z,71.40
2019-03-27T03:43:55.337Z,76.10
2019-03-27T03:46:38.815Z,75.43
2019-03-27T03:49:19.735Z,78.80
2019-03-27T03:52:00.133Z,68.53
2019-03-27T03:54:47.472Z,70.70
2019-03-27T03:57:31.412Z,86.10
2019-03-27T04:00:19.010Z,97.83
2019-03-27T04:03:16.099Z,86.13
2019-03-27T04:05:56.013Z,78.80
2019-03-27T04:08:37.324Z,71.40
2019-03-27T04:11:33.436Z,86.92
2019-03-27T04:14:13.197Z,70.77
2019-03-27T04:16:57.117Z,82.93
2019-03-27T04:19:36.717Z,83.47
2019-03-27T04:22:20.114Z,83.63
2019-03-27T04:25:11.708Z,75.47
2019-03-27T04:28:03.685Z,74.53
2019-03-27T04:30:54.942Z,74.47
2019-03-27T04:33:57.053Z,73.03
2019-03-27T04:37:00.501Z,77.13
2019-03-27T04:40:09.293Z,76.13
2019-03-27T04:43:24.304Z,101.78
2019-03-27T04:46:29.296Z,110.20
2019-03-27T04:49:18.457Z,87.43
2019-03-27T04:52:12.297Z,97.50
2019-03-27T04:54:56.087Z,84.87
2019-03-27T04:58:02.695Z,100.13
2019-03-27T05:01:10.386Z,131.37
2019-03-27T05:04:29.070Z,91.87
2019-03-27T05:07:51.658Z,87.77
2019-03-27T05:15:24.180Z,67.63
2019-03-27T06:01:48.381Z,74.93
2019-03-27T06:04:43.160Z,82.53
2019-03-27T06:07:51.068Z,72.23
2019-03-27T06:10:46.786Z,68.00
2019-03-27T06:13:51.481Z,68.03
2019-03-27T06:16:37.754Z,69.40
2019-03-27T06:19:24.465Z,88.75
2019-03-27T06:22:31.019Z,75.10
2019-03-27T06:25:21.842Z,73.20
2019-03-27T06:28:08.669Z,67.63
2019-03-27T06:30:59.662Z,62.67
2019-03-27T06:34:10.740Z,58.53
2019-03-27T06:37:21.016Z,55.57
2019-03-27T06:40:06.138Z,53.00
2019-03-27T06:43:19.028Z,57.67
2019-03-27T06:46:27.540Z,55.73
2019-03-27T06:49:28.753Z,59.70
2019-03-27T06:52:14.131Z,58.33
2019-03-27T06:55:03.297Z,50.97
2019-03-27T06:58:07.377Z,44.57
2019-03-27T07:00:52.688Z,45.73
2019-03-27T07:03:36.491Z,41.23
2019-03-27T07:07:15.845Z,45.17
2019-03-27T07:10:03.786Z,41.70
2019-03-27T07:13:11.449Z,39.33
2019-03-27T07:15:57.062Z,37.80
2019-03-27T07:18:41.972Z,34.73
2019-03-27T07:21:27.275Z,38.83
2019-03-27T07:24:26.166Z,40.10
2019-03-27T07:27:25.411Z,51.08
2019-03-27T07:30:08.434Z,43.23
2019-03-27T07:32:56.020Z,44.70
2019-03-27T07:35:38.005Z,38.07
2019-03-27T07:38:42.426Z,37.57
2019-03-27T07:41:29.741Z,34.07
2019-03-27T07:44:15.182Z,35.50
2019-03-27T07:47:04.949Z,36.93
2019-03-27T07:49:53.607Z,40.37
2019-03-27T07:52:49.199Z,38.00
2019-03-27T07:55:38.146Z,47.03
2019-03-27T07:58:21.528Z,39.53
2019-03-27T08:01:11.891Z,37.20
2019-03-27T08:04:03.322Z,36.97
2019-03-27T08:06:52.659Z,38.27
2019-03-27T08:09:44.754Z,36.77
2019-03-27T08:12:28.184Z,41.87
2019-03-27T08:15:21.513Z,37.47
2019-03-27T08:18:07.259Z,35.63
2019-03-27T08:20:56.616Z,35.03
2019-03-27T08:23:43.127Z,33.57
2019-03-27T08:26:29.969Z,33.00
2019-03-27T08:29:21.408Z,33.20
2019-03-27T08:32:07.472Z,35.65
2019-03-27T08:34:49.369Z,29.10
2019-03-27T08:37:33.258Z,30.53
2019-03-27T08:40:16.543Z,35.47
2019-03-27T08:43:03.567Z,32.73
2019-03-27T08:45:47.206Z,34.53
2019-03-27T08:48:25.290Z,31.37
2019-03-27T08:51:13.817Z,30.93
2019-03-27T08:54:00.597Z,32.97
2019-03-27T08:56:49.240Z,34.37
2019-03-27T08:59:36.450Z,34.73
2019-03-27T09:02:19.004Z,32.40
2019-03-27T09:04:59.423Z,36.30
2019-03-27T09:07:51.731Z,36.67
2019-03-27T09:10:32.009Z,36.33
2019-03-27T09:13:18.790Z,36.87
2019-03-27T09:16:03.091Z,38.73
2019-03-27T09:18:45.590Z,38.50
2019-03-27T09:21:33.962Z,39.37
2019-03-27T09:24:18.124Z,40.30
2019-03-27T09:27:07.771Z,41.03
2019-03-27T09:29:49.059Z,38.77
2019-03-27T09:32:30.655Z,44.53
2019-03-27T09:35:20.918Z,41.90
2019-03-27T09:38:08.691Z,44.00
2019-03-27T09:40:55.768Z,41.10
2019-03-27T09:43:39.583Z,45.43
2019-03-27T09:46:21.822Z,43.90
2019-03-27T09:49:06.823Z,48.50
2019-03-27T09:51:55.896Z,48.83
2019-03-27T09:54:47.320Z,51.57
2019-03-27T09:57:31.096Z,42.77
2019-03-27T10:00:09.701Z,42.27
2019-03-27T10:02:57.788Z,37.10
2019-03-27T10:05:42.808Z,41.42
2019-03-27T10:08:33.536Z,37.20
2019-03-27T10:11:14.914Z,35.73
2019-03-27T10:14:02.411Z,40.98
2019-03-27T10:16:54.241Z,38.00
2019-03-27T10:19:38.370Z,50.17
2019-03-27T10:22:24.630Z,39.07
2019-03-27T10:25:12.133Z,42.80
2019-03-27T10:28:08.176Z,37.97
2019-03-27T10:31:00.648Z,36.77
2019-03-27T10:33:47.492Z,37.53
2019-03-27T10:36:32.620Z,39.17
2019-03-27T10:39:21.406Z,38.33
2019-03-27T10:42:11.378Z,45.43
2019-03-27T10:45:20.105Z,39.77
2019-03-27T10:48:01.850Z,56.53
2019-03-27T10:50:53.426Z,49.23
2019-03-27T10:53:40.339Z,41.20
2019-03-27T10:56:59.390Z,37.27
2019-03-27T10:59:43.945Z,38.93
2019-03-27T11:02:37.383Z,50.63
2019-03-27T11:05:23.374Z,40.30
2019-03-27T11:08:11.256Z,37.57
2019-03-27T11:10:55.736Z,34.83
2019-03-27T11:13:42.507Z,32.93
2019-03-27T11:16:25.963Z,33.83
2019-03-27T11:19:19.603Z,35.97
2019-03-27T11:22:10.413Z,42.43
2019-03-27T11:25:08.817Z,40.73
2019-03-27T11:28:21.290Z,38.43
2019-03-27T11:31:20.775Z,36.50
2019-03-27T11:34:07.115Z,35.60
2019-03-27T11:37:02.399Z,33.70
2019-03-27T11:39:56.035Z,35.40
2019-03-27T11:42:54.692Z,37.57
2019-03-27T11:45:44.360Z,32.27
2019-03-27T11:48:26.568Z,34.65
2019-03-27T11:51:37.600Z,37.33
2019-03-27T11:54:23.470Z,32.28
2019-03-27T11:57:16.854Z,31.10
2019-03-27T12:00:17.504Z,27.40
2019-03-27T12:03:08.347Z,23.93
2019-03-27T12:06:11.076Z,45.77
2019-03-27T12:09:16.192Z,52.10
2019-03-27T12:12:24.727Z,38.10
2019-03-27T12:15:17.985Z,31.77
2019-03-27T12:18:38.780Z,27.50
2019-03-27T12:21:54.831Z,22.83
2019-03-27T12:25:27.693Z,22.90
2019-03-27T12:28:29.833Z,21.47
2019-03-27T12:31:33.184Z,31.15
2019-03-27T12:34:48.929Z,29.70
2019-03-27T12:37:53.549Z,23.43
2019-03-27T12:41:08.170Z,18.87
2019-03-27T12:44:10.292Z,23.38
2019-03-27T12:47:25.678Z,19.60
2019-03-27T12:50:33.788Z,18.67
2019-03-27T12:53:22.070Z,21.97
2019-03-27T12:56:48.265Z,20.53
2019-03-27T13:00:02.082Z,22.50
2019-03-27T13:03:12.164Z,17.93
2019-03-27T13:06:29.124Z,17.33
2019-03-27T13:09:14.272Z,33.70
2019-03-27T13:12:32.899Z,33.00
2019-03-27T13:15:43.215Z,22.67
2019-03-27T13:18:42.719Z,28.00
2019-03-27T13:21:55.831Z,25.77
2019-03-27T13:25:17.449Z,21.90
2019-03-27T13:28:31.649Z,23.60
2019-03-27T13:31:46.038Z,25.25
2019-03-27T13:34:39.952Z,21.43
2019-03-27T13:37:43.706Z,20.40
2019-03-27T13:40:57.148Z,21.70
2019-03-27T13:44:37.597Z,21.43
2019-03-27T13:47:53.227Z,17.17
2019-03-27T13:51:02.964Z,14.70
2019-03-27T13:54:12.310Z,14.03
2019-03-27T13:57:36.837Z,21.83
2019-03-27T14:00:48.866Z,19.20
2019-03-27T14:04:24.440Z,18.70
2019-03-27T14:07:56.586Z,19.70
2019-03-27T14:11:21.115Z,19.67
2019-03-27T14:14:50.179Z,25.40
2019-03-27T14:18:13.335Z,33.00
2019-03-27T14:21:54.729Z,36.73
2019-03-27T14:25:00.714Z,43.37
2019-03-27T14:28:24.210Z,45.43
2019-03-27T14:35:43.076Z,55.28
2019-03-27T14:39:14.702Z,49.27
2019-03-27T14:42:32.902Z,53.52
2019-03-27T14:45:40.461Z,47.37
2019-03-27T14:49:10.639Z,47.17
2019-03-27T14:52:12.411Z,47.30
2019-03-27T14:55:15.820Z,45.50
2019-03-27T14:58:28.459Z,49.83
2019-03-27T15:01:49.135Z,51.93
2019-03-27T15:05:10.182Z,47.53
2019-03-27T15:08:24.932Z,47.13
2019-03-27T15:11:47.403Z,47.57
2019-03-27T15:15:00.482Z,48.30
2019-03-27T15:18:24.503Z,50.17
2019-03-27T15:21:49.725Z,47.27
2019-03-27T15:28:50.530Z,89.15
2019-03-27T15:32:02.539Z,57.60
2019-03-27T15:35:38.227Z,56.05
2019-03-27T15:38:51.070Z,105.33
2019-03-27T15:42:12.513Z,54.57
2019-03-27T15:46:29.526Z,49.30
2019-03-27T15:49:15.777Z,44.13
2019-03-27T15:52:36.453Z,42.87
2019-03-27T15:55:52.866Z,40.77
2019-03-27T15:59:13.399Z,45.10
2019-03-27T16:02:26.699Z,42.07
2019-03-27T16:05:43.856Z,41.23
2019-03-27T16:08:58.255Z,51.20
2019-03-27T16:12:20.812Z,44.13
2019-03-27T16:15:42.366Z,39.50
2019-03-27T16:19:16.397Z,49.57
2019-03-27T16:22:12.761Z,40.77
2019-03-27T16:25:14.331Z,37.37
2019-03-27T16:28:17.407Z,57.50
2019-03-27T16:31:17.995Z,37.90
2019-03-27T16:34:08.886Z,34.00
2019-03-27T16:37:06.776Z,32.17
2019-03-27T16:40:25.276Z,30.50
2019-03-27T16:43:13.032Z,84.90
2019-03-27T16:46:21.875Z,95.37
2019-03-27T16:49:12.644Z,44.13
2019-03-27T16:51:57.800Z,36.20
2019-03-27T16:54:40.065Z,30.03
2019-03-27T16:57:25.790Z,27.60
2019-03-27T17:00:08.991Z,26.07
2019-03-27T17:03:05.192Z,23.57
2019-03-27T17:05:54.247Z,24.43
2019-03-27T17:08:57.337Z,25.03
2019-03-27T17:11:36.447Z,24.13
2019-03-27T17:14:20.745Z,23.47
2019-03-27T17:17:10.470Z,24.52
2019-03-27T17:19:55.809Z,21.57
2019-03-27T17:22:36.456Z,19.77
2019-03-27T17:25:23.380Z,20.93
2019-03-27T17:28:06.224Z,19.73
2019-03-27T17:30:54.766Z,17.07
2019-03-27T17:33:40.263Z,15.20
2019-03-27T17:36:19.948Z,14.87
2019-03-27T17:39:14.655Z,13.33
2019-03-27T17:41:56.733Z,13.13
2019-03-27T17:44:41.537Z,11.47
2019-03-27T17:47:26.345Z,12.57
2019-03-27T17:50:06.164Z,13.73
2019-03-27T17:52:59.174Z,16.10
2019-03-27T17:55:50.597Z,15.23
2019-03-27T17:58:34.587Z,15.43
2019-03-27T18:01:21.031Z,13.73
2019-03-27T18:04:03.105Z,13.90
2019-03-27T18:06:42.325Z,13.43
2019-03-27T18:09:28.816Z,11.47
2019-03-27T18:12:13.246Z,10.57
2019-03-27T18:15:00.362Z,9.30
2019-03-27T18:17:43.124Z,10.67
2019-03-27T18:20:22.947Z,11.00
2019-03-27T18:23:04.227Z,13.07
2019-03-27T18:25:46.680Z,10.87
2019-03-27T18:28:28.319Z,12.78
2019-03-27T18:31:15.450Z,11.87
2019-03-27T18:33:55.541Z,10.63
2019-03-27T18:36:36.668Z,11.03
2019-03-27T18:39:22.887Z,9.80
2019-03-27T18:42:05.597Z,11.37
2019-03-27T18:44:46.168Z,13.27
2019-03-27T18:47:27.138Z,13.27
2019-03-27T18:50:13.378Z,11.90
2019-03-27T18:52:57.438Z,11.60
2019-03-27T18:55:43.131Z,10.93
2019-03-27T18:58:25.459Z,12.40
2019-03-27T19:01:06.920Z,11.43
2019-03-27T19:03:52.762Z,9.97
2019-03-27T19:06:41.483Z,15.43
2019-03-27T19:09:21.397Z,10.90
2019-03-27T19:12:04.931Z,10.40
2019-03-27T19:14:44.873Z,11.80
2019-03-27T19:17:25.650Z,10.13
2019-03-27T19:20:10.003Z,9.67
2019-03-27T19:22:52.625Z,9.27
2019-03-27T19:25:35.767Z,8.43
2019-03-27T19:28:15.008Z,8.93
2019-03-27T19:30:54.608Z,8.37
2019-03-27T19:33:38.857Z,9.13
2019-03-27T19:36:21.665Z,10.77
2019-03-27T19:39:04.003Z,10.57
2019-03-27T19:41:47.889Z,10.07
2019-03-27T19:44:27.203Z,9.15
2019-03-27T19:47:09.435Z,11.07
2019-03-27T19:49:52.516Z,9.83
2019-03-27T19:52:32.453Z,10.40
2019-03-27T19:55:14.589Z,10.37
2019-03-27T19:57:57.300Z,11.80
2019-03-27T20:00:37.075Z,11.07
2019-03-27T20:03:21.824Z,10.87
2019-03-27T20:06:06.214Z,10.97
2019-03-27T20:08:48.076Z,10.03
2019-03-27T20:11:30.112Z,12.10
2019-03-27T20:14:10.682Z,12.80
2019-03-27T20:16:52.129Z,12.70
2019-03-27T20:19:36.067Z,12.50
2019-03-27T20:22:17.774Z,11.23
2019-03-27T20:25:01.937Z,12.35
2019-03-27T20:27:47.512Z,12.30
2019-03-27T20:30:27.176Z,11.23
2019-03-27T20:33:10.918Z,12.87
2019-03-27T20:35:55.813Z,11.97
2019-03-27T20:38:34.165Z,12.23
2019-03-27T20:41:20.817Z,12.93
2019-03-27T20:44:02.149Z,14.37
2019-03-27T20:46:46.873Z,14.13
2019-03-27T20:49:28.702Z,12.27
2019-03-27T20:52:11.032Z,11.80
2019-03-27T20:54:55.277Z,12.60
2019-03-27T20:57:33.611Z,13.60
2019-03-27T21:00:13.336Z,12.27
2019-03-27T21:02:54.631Z,12.75
2019-03-27T21:05:38.655Z,11.93
2019-03-27T21:08:19.843Z,12.33
2019-03-27T21:11:02.924Z,13.03
2019-03-27T21:13:49.993Z,13.80
2019-03-27T21:16:31.545Z,13.40
2019-03-27T21:19:15.468Z,14.33
2019-03-27T21:21:57.990Z,17.70
2019-03-27T21:24:39.694Z,19.20
2019-03-27T21:27:18.473Z,14.63
2019-03-27T21:30:01.557Z,14.63
2019-03-27T21:32:46.863Z,14.50
2019-03-27T21:35:33.779Z,13.80
2019-03-27T21:38:15.694Z,13.60
2019-03-27T21:40:55.996Z,13.63
2019-03-27T21:43:38.984Z,17.02
2019-03-27T21:46:24.243Z,15.73
2019-03-27T21:49:07.849Z,15.07
2019-03-27T21:51:48.301Z,14.40
2019-03-27T21:54:30.768Z,14.23
2019-03-27T21:57:13.745Z,14.30
2019-03-27T21:59:55.637Z,14.03
2019-03-27T22:02:48.444Z,14.40
2019-03-27T22:05:27.581Z,15.10
2019-03-27T22:08:13.151Z,15.00
2019-03-27T22:10:56.364Z,15.60
2019-03-27T22:13:40.423Z,15.10
2019-03-27T22:16:22.298Z,14.03
2019-03-27T22:19:05.921Z,13.63
2019-03-27T22:21:48.506Z,14.27
2019-03-27T22:24:32.081Z,16.42
2019-03-27T22:27:15.942Z,15.10
2019-03-27T22:29:58.355Z,14.87
2019-03-27T22:32:38.494Z,15.67
2019-03-27T22:35:19.780Z,15.00
2019-03-27T22:38:04.550Z,14.90
2019-03-27T22:40:47.109Z,15.07
2019-03-27T22:43:28.080Z,16.63
2019-03-27T22:46:30.505Z,15.97
2019-03-27T22:49:14.021Z,16.37
2019-03-27T22:52:04.258Z,15.67
2019-03-27T22:54:48.097Z,16.60
2019-03-27T22:57:31.034Z,16.77
2019-03-27T23:00:13.073Z,16.63
2019-03-27T23:02:55.547Z,16.50
2019-03-27T23:05:40.655Z,17.73
2019-03-27T23:08:21.851Z,15.87
2019-03-27T23:11:07.252Z,18.83
2019-03-27T23:13:48.492Z,31.90
2019-03-27T23:16:31.221Z,30.73
2019-03-27T23:19:14.546Z,26.67
2019-03-27T23:22:02.289Z,20.60
2019-03-27T23:24:47.959Z,17.87
2019-03-27T23:27:29.680Z,21.03
2019-03-27T23:30:15.104Z,202.47
2019-03-27T23:32:59.298Z,70.80
2019-03-27T23:35:47.975Z,33.50
2019-03-27T23:38:33.610Z,24.55
2019-03-27T23:41:21.289Z,22.23
2019-03-27T23:44:04.364Z,30.30
2019-03-27T23:46:51.074Z,26.97
2019-03-27T23:49:34.679Z,24.43
2019-03-27T23:52:21.583Z,27.77
2019-03-27T23:55:04.291Z,26.33
2019-03-27T23:57:45.305Z,30.00
